createdAt,value
2019-02-17T00:00:14.155Z,29.6
2019-02-17T00:01:03.686Z,29.4
2019-02-17T00:01:54.287Z,29.4
2019-02-17T00:02:44.323Z,29.1
2019-02-17T00:03:34.135Z,29
2019-02-17T00:04:24.165Z,28.9
2019-02-17T00:05:13.461Z,28.8
2019-02-17T00:06:05.168Z,28.7
2019-02-17T00:06:54.815Z,28.6
2019-02-17T00:07:44.357Z,28.6
2019-02-17T00:08:33.702Z,28.6
2019-02-17T00:09:24.917Z,28.5
2019-02-17T00:10:14.515Z,27.9
2019-02-17T00:11:05.671Z,27.4
2019-02-17T00:11:54.710Z,27.1
2019-02-17T00:12:45.294Z,26.8
2019-02-17T00:13:34.067Z,26.7
2019-02-17T00:14:28.297Z,26.6
2019-02-17T00:15:15.223Z,26.4
2019-02-17T00:16:05.573Z,26.1
2019-02-17T00:16:55.787Z,26.3
2019-02-17T00:17:46.422Z,27.1
2019-02-17T00:18:35.679Z,27.9
2019-02-17T00:19:26.277Z,28.4
2019-02-17T00:20:16.118Z,28.9
2019-02-17T00:21:04.731Z,29.2
2019-02-17T00:21:55.135Z,29.5
2019-02-17T00:22:45.442Z,29.8
2019-02-17T00:23:35.786Z,30.1
2019-02-17T00:24:25.827Z,30.3
2019-02-17T00:25:15.970Z,30.6
2019-02-17T00:26:06.177Z,30.1
2019-02-17T00:26:55.694Z,29.8
2019-02-17T00:27:46.533Z,29.8
2019-02-17T00:28:36.601Z,29.6
2019-02-17T00:29:27.236Z,29.4
2019-02-17T00:30:16.986Z,29.3
2019-02-17T00:31:06.803Z,29.1
2019-02-17T00:31:56.876Z,28.9
2019-02-17T00:32:47.189Z,28.8
2019-02-17T00:33:35.916Z,28.8
2019-02-17T00:34:27.364Z,28.7
2019-02-17T00:35:15.760Z,28.7
2019-02-17T00:36:07.198Z,28.2
2019-02-17T00:36:56.642Z,27.6
2019-02-17T00:37:47.558Z,27.2
2019-02-17T00:38:37.906Z,26.9
2019-02-17T00:39:27.371Z,26.8
2019-02-17T00:40:17.703Z,26.6
2019-02-17T00:41:07.255Z,26.5
2019-02-17T00:41:57.530Z,26.1
2019-02-17T00:42:47.314Z,26.4
2019-02-17T00:43:37.185Z,27.2
2019-02-17T00:44:28.033Z,27.9
2019-02-17T00:45:17.508Z,28.4
2019-02-17T00:46:07.535Z,28.8
2019-02-17T00:46:58.262Z,29.2
2019-02-17T00:47:47.115Z,29.5
2019-02-17T00:48:38.002Z,29.8
2019-02-17T00:49:27.535Z,30
2019-02-17T00:50:18.157Z,30.3
2019-02-17T00:51:07.594Z,30.5
2019-02-17T00:51:58.006Z,30.5
2019-02-17T00:52:48.055Z,29.8
2019-02-17T00:53:37.859Z,29.9
2019-02-17T00:54:28.693Z,29.7
2019-02-17T00:55:18.732Z,29.4
2019-02-17T00:56:08.297Z,29.3
2019-02-17T00:56:57.482Z,29.2
2019-02-17T00:57:48.379Z,29.1
2019-02-17T00:58:38.702Z,28.9
2019-02-17T00:59:29.066Z,28.8
2019-02-17T01:00:18.574Z,28.8
2019-02-17T01:01:08.568Z,28.7
2019-02-17T01:01:58.153Z,28.3
2019-02-17T01:02:49.318Z,27.7
2019-02-17T01:03:39.118Z,27.3
2019-02-17T01:04:29.097Z,26.9
2019-02-17T01:05:19.235Z,26.8
2019-02-17T01:06:08.152Z,26.6
2019-02-17T01:06:59.033Z,26.5
2019-02-17T01:07:49.353Z,26.1
2019-02-17T01:08:38.835Z,26.4
2019-02-17T01:09:29.437Z,27.1
2019-02-17T01:11:09.084Z,28.4
2019-02-17T01:11:59.072Z,28.8
2019-02-17T01:12:49.392Z,29.1
2019-02-17T01:13:40.381Z,29.4
2019-02-17T01:14:29.779Z,29.3
2019-02-17T01:15:19.197Z,28.3
2019-02-17T01:16:08.789Z,27.1
2019-02-17T01:16:59.264Z,25.7
2019-02-17T01:17:49.007Z,24.4
2019-02-17T01:18:39.861Z,24.3
2019-02-17T01:19:30.414Z,24.4
2019-02-17T01:20:19.652Z,25.6
2019-02-17T01:21:09.686Z,26.6
2019-02-17T01:22:00.871Z,27.4
2019-02-17T01:22:50.631Z,28.1
2019-02-17T01:23:40.131Z,28.6
2019-02-17T01:24:29.091Z,29
2019-02-17T01:25:20.836Z,29.4
2019-02-17T01:26:10.861Z,29.7
2019-02-17T01:26:59.823Z,29.9
2019-02-17T01:27:50.453Z,30.3
2019-02-17T01:28:39.940Z,30.5
2019-02-17T01:29:30.600Z,30.3
2019-02-17T01:30:21.478Z,29.8
2019-02-17T01:31:13.202Z,29.8
2019-02-17T01:32:00.443Z,29.6
2019-02-17T01:32:51.350Z,29.4
2019-02-17T01:33:40.838Z,29.1
2019-02-17T01:34:30.895Z,29
2019-02-17T01:35:21.240Z,28.9
2019-02-17T01:36:10.214Z,28.8
2019-02-17T01:37:00.805Z,28.7
2019-02-17T01:37:51.682Z,28.6
2019-02-17T01:38:41.255Z,28.5
2019-02-17T01:39:31.262Z,28.1
2019-02-17T01:40:19.636Z,27.4
2019-02-17T01:41:11.064Z,27.1
2019-02-17T01:42:01.152Z,26.8
2019-02-17T01:42:51.494Z,26.6
2019-02-17T01:43:42.134Z,26.4
2019-02-17T01:44:30.776Z,26.3
2019-02-17T01:45:22.573Z,25.9
2019-02-17T01:46:11.758Z,26.8
2019-02-17T01:47:01.772Z,27.5
2019-02-17T01:47:51.809Z,28.1
2019-02-17T01:48:42.153Z,28.6
2019-02-17T01:49:31.711Z,28.9
2019-02-17T01:50:22.081Z,29.3
2019-02-17T01:51:11.558Z,29.5
2019-02-17T01:52:02.373Z,29.8
2019-02-17T01:52:52.492Z,30
2019-02-17T01:53:41.699Z,30.3
2019-02-17T01:54:32.627Z,30.4
2019-02-17T01:55:22.658Z,30.6
2019-02-17T01:56:12.160Z,29.9
2019-02-17T01:57:02.230Z,29.8
2019-02-17T01:57:52.554Z,29.7
2019-02-17T01:58:42.005Z,29.5
2019-02-17T01:59:38.312Z,29.3
2019-02-17T02:00:22.497Z,29.1
2019-02-17T02:01:12.239Z,29.1
2019-02-17T02:02:02.349Z,28.9
2019-02-17T02:02:53.412Z,28.9
2019-02-17T02:03:43.478Z,28.8
2019-02-17T02:04:33.542Z,28.7
2019-02-17T02:05:22.824Z,28.3
2019-02-17T02:06:11.484Z,27.7
2019-02-17T02:07:02.678Z,27.3
2019-02-17T02:07:52.729Z,26.9
2019-02-17T02:08:43.389Z,26.8
2019-02-17T02:09:32.887Z,26.6
2019-02-17T02:10:22.056Z,26.4
2019-02-17T02:11:13.175Z,26
2019-02-17T02:12:03.773Z,26.6
2019-02-17T02:12:53.570Z,27.4
2019-02-17T02:13:42.788Z,28
2019-02-17T02:14:33.678Z,28.4
2019-02-17T02:15:23.810Z,28.8
2019-02-17T02:16:12.518Z,29.1
2019-02-17T02:17:03.748Z,29.4
2019-02-17T02:17:53.600Z,29.6
2019-02-17T02:18:43.788Z,29.9
2019-02-17T02:19:33.530Z,30.1
2019-02-17T02:20:23.909Z,30.3
2019-02-17T02:21:14.691Z,30.4
2019-02-17T02:22:04.565Z,30.6
2019-02-17T02:22:53.942Z,29.8
2019-02-17T02:23:43.466Z,29.8
2019-02-17T02:24:34.652Z,29.6
2019-02-17T02:25:24.438Z,29.4
2019-02-17T02:26:15.307Z,29.3
2019-02-17T02:27:04.549Z,29.2
2019-02-17T02:27:54.334Z,29.1
2019-02-17T02:28:44.914Z,28.9
2019-02-17T02:29:44.904Z,28.8
2019-02-17T02:30:24.768Z,28.8
2019-02-17T02:31:14.924Z,28.7
2019-02-17T02:32:04.691Z,28.6
2019-02-17T02:32:55.319Z,27.9
2019-02-17T02:33:44.501Z,27.3
2019-02-17T02:34:34.793Z,27
2019-02-17T02:35:25.192Z,26.8
2019-02-17T02:36:14.681Z,26.6
2019-02-17T02:37:05.993Z,26.5
2019-02-17T02:37:54.524Z,26
2019-02-17T02:38:45.191Z,26.5
2019-02-17T02:39:35.715Z,27.3
2019-02-17T02:40:26.442Z,27.9
2019-02-17T02:41:16.090Z,28.4
2019-02-17T02:42:05.352Z,28.8
2019-02-17T02:42:55.483Z,29.1
2019-02-17T02:43:45.765Z,29.3
2019-02-17T02:44:35.532Z,29.6
2019-02-17T02:45:25.586Z,29.8
2019-02-17T02:46:15.667Z,30
2019-02-17T02:47:06.790Z,30.2
2019-02-17T02:47:55.996Z,30.4
2019-02-17T02:48:46.195Z,30.6
2019-02-17T02:49:36.147Z,29.9
2019-02-17T02:50:26.336Z,29.8
2019-02-17T02:51:16.865Z,29.7
2019-02-17T02:52:06.852Z,29.5
2019-02-17T02:52:55.592Z,29.3
2019-02-17T02:53:46.567Z,29.1
2019-02-17T02:54:36.757Z,29.1
2019-02-17T02:55:26.105Z,28.9
2019-02-17T02:56:17.128Z,28.8
2019-02-17T02:57:06.699Z,28.8
2019-02-17T02:57:55.920Z,28.7
2019-02-17T02:58:47.099Z,28.7
2019-02-17T02:59:36.006Z,28.1
2019-02-17T03:00:27.526Z,27.5
2019-02-17T03:01:17.598Z,27.1
2019-02-17T03:02:06.478Z,26.8
2019-02-17T03:02:57.955Z,26.6
2019-02-17T03:03:50.890Z,26.5
2019-02-17T03:04:37.460Z,26.1
2019-02-17T03:08:09.985Z,28.3
2019-02-17T03:09:00.044Z,28.7
2019-02-17T03:09:49.491Z,29
2019-02-17T03:10:39.592Z,29.3
2019-02-17T03:11:30.496Z,29.5
2019-02-17T03:12:20.216Z,29.8
2019-02-17T03:13:10.274Z,29.9
2019-02-17T03:13:59.622Z,30.1
2019-02-17T03:14:48.724Z,30.3
2019-02-17T03:15:39.866Z,30.4
2019-02-17T03:16:29.952Z,30.6
2019-02-17T03:17:20.107Z,29.8
2019-02-17T03:18:10.642Z,29.8
2019-02-17T03:18:59.814Z,29.6
2019-02-17T03:19:49.384Z,29.4
2019-02-17T03:20:40.483Z,29.3
2019-02-17T03:21:30.568Z,29.2
2019-02-17T03:22:20.701Z,29
2019-02-17T03:23:10.962Z,28.9
2019-02-17T03:24:00.178Z,28.8
2019-02-17T03:24:50.293Z,28.8
2019-02-17T03:25:40.324Z,28.7
2019-02-17T03:26:30.974Z,28.3
2019-02-17T03:27:21.373Z,27.6
2019-02-17T03:28:10.796Z,27.2
2019-02-17T03:29:01.393Z,26.9
2019-02-17T03:29:51.443Z,26.7
2019-02-17T03:30:41.771Z,26.5
2019-02-17T03:31:31.278Z,26.4
2019-02-17T03:32:21.618Z,26
2019-02-17T03:33:11.648Z,26.6
2019-02-17T03:34:01.168Z,27.3
2019-02-17T03:34:51.558Z,27.9
2019-02-17T03:35:41.712Z,28.3
2019-02-17T03:36:31.885Z,28.7
2019-02-17T03:37:22.211Z,28.9
2019-02-17T03:38:12.262Z,29.1
2019-02-17T03:39:02.107Z,28.9
2019-02-17T03:39:51.982Z,28
2019-02-17T03:40:41.319Z,26.9
2019-02-17T03:41:32.789Z,25.9
2019-02-17T03:42:21.974Z,24.8
2019-02-17T03:43:12.442Z,23.4
2019-02-17T03:44:02.804Z,22.7
2019-02-17T03:44:52.447Z,22.9
2019-02-17T03:45:42.237Z,23.4
2019-02-17T03:46:32.572Z,24.8
2019-02-17T03:47:22.422Z,25.7
2019-02-17T03:48:12.147Z,26.6
2019-02-17T03:49:02.696Z,27.4
2019-02-17T03:49:52.885Z,27.9
2019-02-17T03:50:42.025Z,28.4
2019-02-17T03:51:32.619Z,28.8
2019-02-17T03:52:22.713Z,29.1
2019-02-17T03:53:12.444Z,29.4
2019-02-17T03:54:01.679Z,29.6
2019-02-17T03:54:53.152Z,29.9
2019-02-17T03:55:43.778Z,30.1
2019-02-17T03:56:33.571Z,30.3
2019-02-17T03:57:23.613Z,30.6
2019-02-17T03:58:12.016Z,30.6
2019-02-17T03:59:03.238Z,29.8
2019-02-17T03:59:53.806Z,29.8
2019-02-17T04:00:43.010Z,29.6
2019-02-17T04:01:33.426Z,29.4
2019-02-17T04:02:22.801Z,29.3
2019-02-17T04:03:13.165Z,29.1
2019-02-17T04:04:03.875Z,28.9
2019-02-17T04:04:53.566Z,28.8
2019-02-17T04:05:42.842Z,28.8
2019-02-17T04:06:33.441Z,28.7
2019-02-17T04:07:24.078Z,28.6
2019-02-17T04:08:13.790Z,28.1
2019-02-17T04:09:04.245Z,27.5
2019-02-17T04:09:54.538Z,27.1
2019-02-17T04:10:43.463Z,26.8
2019-02-17T04:11:34.425Z,26.6
2019-02-17T04:12:24.375Z,26.5
2019-02-17T04:13:14.142Z,26
2019-02-17T04:14:04.229Z,26.4
2019-02-17T04:14:54.520Z,27.3
2019-02-17T04:15:44.575Z,27.9
2019-02-17T04:16:34.972Z,28.4
2019-02-17T04:17:24.807Z,28.8
2019-02-17T04:18:14.449Z,29
2019-02-17T04:19:04.235Z,29.3
2019-02-17T04:19:54.592Z,29.5
2019-02-17T04:20:44.725Z,29.7
2019-02-17T04:21:37.907Z,29.9
2019-02-17T04:22:25.069Z,30.1
2019-02-17T04:23:14.092Z,30.3
2019-02-17T04:24:04.293Z,30.4
2019-02-17T04:24:53.873Z,30.6
2019-02-17T04:25:45.149Z,29.9
2019-02-17T04:26:34.782Z,29.8
2019-02-17T04:27:24.875Z,29.6
2019-02-17T04:28:14.947Z,29.5
2019-02-17T04:29:05.321Z,29.3
2019-02-17T04:29:55.867Z,29.2
2019-02-17T04:30:45.307Z,29.1
2019-02-17T04:31:35.484Z,28.9
2019-02-17T04:32:25.488Z,28.9
2019-02-17T04:33:15.227Z,28.8
2019-02-17T04:34:05.669Z,28.8
2019-02-17T04:34:55.336Z,28.6
2019-02-17T04:36:35.758Z,27.3
2019-02-17T04:37:26.091Z,27
2019-02-17T04:38:16.404Z,26.8
2019-02-17T04:39:05.958Z,26.6
2019-02-17T04:39:56.351Z,26.3
2019-02-17T04:40:45.734Z,26.1
2019-02-17T04:41:36.358Z,26.8
2019-02-17T04:42:25.871Z,27.4
2019-02-17T04:43:15.769Z,28
2019-02-17T04:44:05.705Z,28.4
2019-02-17T04:44:56.864Z,28.8
2019-02-17T04:45:46.106Z,29
2019-02-17T04:46:37.147Z,29.3
2019-02-17T04:47:25.970Z,29.4
2019-02-17T04:48:16.814Z,29.6
2019-02-17T04:49:07.545Z,29.9
2019-02-17T04:49:57.316Z,30.1
2019-02-17T04:50:47.053Z,30.3
2019-02-17T04:51:35.642Z,30.4
2019-02-17T04:52:26.936Z,30.6
2019-02-17T04:53:17.455Z,30.2
2019-02-17T04:54:07.220Z,29.8
2019-02-17T04:54:56.980Z,29.7
2019-02-17T04:55:46.817Z,29.6
2019-02-17T04:56:37.820Z,29.4
2019-02-17T04:57:26.972Z,29.3
2019-02-17T04:58:16.960Z,29.1
2019-02-17T04:59:07.326Z,29.1
2019-02-17T04:59:57.064Z,28.9
2019-02-17T05:00:51.535Z,28.9
2019-02-17T05:01:37.475Z,28.8
2019-02-17T05:02:27.830Z,28.8
2019-02-17T05:03:17.020Z,28.3
2019-02-17T05:04:07.519Z,27.6
2019-02-17T05:04:57.401Z,27.2
2019-02-17T05:05:48.210Z,26.8
2019-02-17T05:06:40.719Z,26.7
2019-02-17T05:07:27.787Z,26.5
2019-02-17T05:08:17.941Z,26.1
2019-02-17T05:09:07.527Z,26.4
2019-02-17T05:09:58.136Z,27.1
2019-02-17T05:10:47.942Z,27.8
2019-02-17T05:11:38.510Z,28.3
2019-02-17T05:12:27.946Z,28.6
2019-02-17T05:13:17.813Z,28.9
2019-02-17T05:14:08.096Z,29.1
2019-02-17T05:14:58.135Z,29.3
2019-02-17T05:15:48.441Z,29.6
2019-02-17T05:16:38.766Z,29.8
2019-02-17T05:17:28.836Z,29.9
2019-02-17T05:18:18.913Z,30.1
2019-02-17T05:19:08.462Z,30.3
2019-02-17T05:19:57.936Z,30.4
2019-02-17T05:20:48.861Z,30.5
2019-02-17T05:21:38.852Z,29.8
2019-02-17T05:22:28.356Z,29.7
2019-02-17T05:23:18.553Z,29.6
2019-02-17T05:24:08.832Z,29.5
2019-02-17T05:24:59.147Z,29.3
2019-02-17T05:25:48.628Z,29.2
2019-02-17T05:26:38.657Z,29.1
2019-02-17T05:27:29.612Z,28.9
2019-02-17T05:28:18.766Z,28.8
2019-02-17T05:29:09.970Z,28.8
2019-02-17T05:29:59.498Z,28.7
2019-02-17T05:31:00.543Z,28.6
2019-02-17T05:31:39.556Z,27.8
2019-02-17T05:32:29.595Z,27.4
2019-02-17T05:33:19.109Z,27.1
2019-02-17T05:34:09.204Z,26.8
2019-02-17T05:35:02.741Z,26.6
2019-02-17T05:35:49.936Z,26.4
2019-02-17T05:36:40.433Z,26.4
2019-02-17T05:37:29.996Z,26.3
2019-02-17T05:38:20.341Z,26.3
2019-02-17T05:39:09.261Z,26.1
2019-02-17T05:40:00.176Z,26.1
2019-02-17T05:40:51.034Z,26
2019-02-17T05:41:40.539Z,25.9
2019-02-17T05:42:30.280Z,25.9
2019-02-17T05:43:19.342Z,25.9
2019-02-17T05:44:10.165Z,25.8
2019-02-17T05:45:00.710Z,25.8
2019-02-17T05:45:51.155Z,25.8
2019-02-17T05:46:40.872Z,25.7
2019-02-17T05:47:30.630Z,25.7
2019-02-17T05:48:20.937Z,25.6
2019-02-17T05:49:10.237Z,25.6
2019-02-17T05:50:01.065Z,25.5
2019-02-17T05:50:50.412Z,25.4
2019-02-17T05:51:40.675Z,25.4
2019-02-17T05:52:30.195Z,25.4
2019-02-17T05:53:21.061Z,25.3
2019-02-17T05:54:11.107Z,25.2
2019-02-17T05:55:00.720Z,25.1
2019-02-17T05:55:50.672Z,26.4
2019-02-17T05:56:41.802Z,30.7
2019-02-17T05:57:31.852Z,33.3
2019-02-17T05:58:21.093Z,34.9
2019-02-17T05:59:11.399Z,36.1
2019-02-17T06:00:01.547Z,36.9
2019-02-17T06:00:51.702Z,37.9
2019-02-17T06:01:41.622Z,38.9
2019-02-17T06:02:30.882Z,39.1
2019-02-17T06:03:21.463Z,38.9
2019-02-17T06:06:09.734Z,36.5
2019-02-17T06:06:58.966Z,36
2019-02-17T06:07:49.884Z,35.8
2019-02-17T06:08:39.594Z,35.4
2019-02-17T06:09:30.239Z,34.9
2019-02-17T06:10:19.769Z,34.2
2019-02-17T06:11:09.327Z,33.1
2019-02-17T06:12:00.669Z,31.9
2019-02-17T06:12:50.274Z,33.6
2019-02-17T06:13:39.777Z,36.4
2019-02-17T06:14:30.420Z,38.1
2019-02-17T06:15:18.989Z,39.2
2019-02-17T06:16:10.458Z,39.8
2019-02-17T06:17:00.477Z,40.3
2019-02-17T06:17:49.539Z,40.6
2019-02-17T06:18:39.998Z,40.8
2019-02-17T06:19:30.091Z,40.6
2019-02-17T06:20:20.438Z,39.8
2019-02-17T06:21:10.188Z,38.6
2019-02-17T06:22:00.809Z,37.8
2019-02-17T06:22:49.945Z,37.1
2019-02-17T06:23:40.270Z,36.6
2019-02-17T06:24:30.956Z,36.2
2019-02-17T06:25:20.969Z,35.8
2019-02-17T06:26:11.211Z,35.3
2019-02-17T06:27:01.424Z,34.6
2019-02-17T06:27:51.817Z,33.5
2019-02-17T06:28:41.263Z,33.6
2019-02-17T06:29:30.977Z,36.4
2019-02-17T06:30:20.813Z,38.2
2019-02-17T06:31:22.338Z,39.3
2019-02-17T06:32:01.498Z,40.3
2019-02-17T06:32:50.762Z,40.5
2019-02-17T06:33:40.786Z,40.7
2019-02-17T06:34:31.368Z,40.7
2019-02-17T06:35:21.464Z,40.4
2019-02-17T06:36:11.315Z,39.8
2019-02-17T06:37:01.286Z,38.4
2019-02-17T06:37:51.610Z,37.5
2019-02-17T06:38:41.419Z,36.9
2019-02-17T06:39:31.467Z,36.4
2019-02-17T06:40:20.966Z,36
2019-02-17T06:41:12.159Z,35.7
2019-02-17T06:42:01.949Z,35.2
2019-02-17T06:42:52.634Z,34.6
2019-02-17T06:43:42.398Z,36
2019-02-17T06:44:31.373Z,38
2019-02-17T06:45:24.562Z,39.1
2019-02-17T06:46:12.553Z,40
2019-02-17T06:47:02.079Z,40.6
2019-02-17T06:47:52.556Z,40.9
2019-02-17T06:48:42.409Z,41.1
2019-02-17T06:49:32.187Z,41
2019-02-17T06:50:22.514Z,40.4
2019-02-17T06:51:13.076Z,39
2019-02-17T06:52:02.602Z,38.1
2019-02-17T06:52:52.647Z,37.4
2019-02-17T06:53:43.074Z,36.9
2019-02-17T06:54:32.301Z,36.5
2019-02-17T06:55:22.605Z,36.2
2019-02-17T06:56:15.881Z,35.8
2019-02-17T06:57:02.096Z,35.1
2019-02-17T06:57:52.139Z,35.8
2019-02-17T06:58:43.336Z,37.9
2019-02-17T06:59:33.081Z,39.2
2019-02-17T07:00:22.048Z,39.9
2019-02-17T07:01:13.203Z,40.4
2019-02-17T07:02:03.259Z,40.8
2019-02-17T07:02:53.039Z,40.9
2019-02-17T07:03:44.677Z,40.2
2019-02-17T07:06:09.234Z,37.3
2019-02-17T07:06:59.441Z,36.8
2019-02-17T07:07:48.850Z,37.4
2019-02-17T07:08:39.363Z,39
2019-02-17T07:09:29.418Z,39.9
2019-02-17T07:10:19.713Z,40.3
2019-02-17T07:11:09.543Z,40.6
2019-02-17T07:12:02.646Z,39.5
2019-02-17T07:12:50.727Z,38.3
2019-02-17T07:13:39.666Z,37.6
2019-02-17T07:14:29.928Z,37
2019-02-17T07:15:19.755Z,37.5
2019-02-17T07:16:10.426Z,39.3
2019-02-17T07:17:00.102Z,40.2
2019-02-17T07:17:50.422Z,40.7
2019-02-17T07:18:41.045Z,40.9
2019-02-17T07:19:30.274Z,41.1
2019-02-17T07:20:19.622Z,40
2019-02-17T07:21:10.672Z,38.8
2019-02-17T07:21:59.396Z,37.9
2019-02-17T07:22:50.597Z,37.3
2019-02-17T07:23:40.682Z,36.8
2019-02-17T07:24:31.478Z,37.5
2019-02-17T07:25:32.330Z,39.1
2019-02-17T07:26:09.761Z,40.2
2019-02-17T07:27:00.632Z,40.6
2019-02-17T07:27:50.929Z,40.8
2019-02-17T07:28:41.434Z,40.2
2019-02-17T07:29:30.299Z,38.8
2019-02-17T07:30:20.737Z,37.9
2019-02-17T07:31:10.814Z,37.3
2019-02-17T07:32:01.444Z,38.7
2019-02-17T07:32:51.472Z,40
2019-02-17T07:33:41.054Z,40.8
2019-02-17T07:34:30.885Z,41.1
2019-02-17T07:35:21.450Z,41.3
2019-02-17T07:36:12.040Z,41.1
2019-02-17T07:37:02.128Z,39.5
2019-02-17T07:37:52.099Z,38.4
2019-02-17T07:38:41.587Z,37.7
2019-02-17T07:39:31.644Z,37.1
2019-02-17T07:40:21.469Z,36.8
2019-02-17T07:41:12.069Z,38.6
2019-02-17T07:42:01.588Z,39.8
2019-02-17T07:42:52.011Z,40.3
2019-02-17T07:43:41.928Z,40.6
2019-02-17T07:44:32.084Z,40.9
2019-02-17T07:45:22.323Z,39.6
2019-02-17T07:46:12.929Z,38.4
2019-02-17T07:47:02.156Z,37.7
2019-02-17T07:47:52.560Z,37.1
2019-02-17T07:48:42.596Z,38.1
2019-02-17T07:49:32.156Z,39.6
2019-02-17T07:50:22.121Z,40.4
2019-02-17T07:51:11.422Z,40.8
2019-02-17T07:52:01.674Z,40.9
2019-02-17T07:52:52.888Z,40.4
2019-02-17T07:53:42.415Z,39.1
2019-02-17T07:54:32.060Z,38.2
2019-02-17T07:55:22.193Z,37.5
2019-02-17T07:56:13.066Z,37
2019-02-17T07:57:03.098Z,37.3
2019-02-17T07:57:52.355Z,39.1
2019-02-17T07:58:42.949Z,39.9
2019-02-17T07:59:33.017Z,40.4
2019-02-17T08:00:23.123Z,40.7
2019-02-17T08:01:14.245Z,40.1
2019-02-17T08:02:03.173Z,38.8
2019-02-17T08:02:55.503Z,38
2019-02-17T08:03:43.040Z,37.3
2019-02-17T08:04:33.355Z,36.8
2019-02-17T08:05:23.210Z,37.3
2019-02-17T08:06:13.543Z,39.1
2019-02-17T08:07:03.620Z,40.1
2019-02-17T08:07:52.480Z,40.6
2019-02-17T08:08:43.909Z,40.9
2019-02-17T08:09:33.964Z,41
2019-02-17T08:10:22.957Z,39.6
2019-02-17T08:11:13.796Z,38.6
2019-02-17T08:12:03.917Z,37.9
2019-02-17T08:12:53.645Z,37.3
2019-02-17T08:13:43.886Z,38.4
2019-02-17T08:14:34.156Z,39.7
2019-02-17T08:15:24.194Z,40.3
2019-02-17T08:16:12.824Z,40.4
2019-02-17T08:17:03.446Z,39.5
2019-02-17T08:17:54.362Z,38.5
2019-02-17T08:18:44.973Z,37.8
2019-02-17T08:19:34.941Z,37.2
2019-02-17T08:20:24.497Z,36.8
2019-02-17T08:21:13.954Z,36.3
2019-02-17T08:22:04.138Z,35.8
2019-02-17T08:22:53.659Z,34.9
2019-02-17T08:23:44.967Z,34
2019-02-17T08:24:33.931Z,33
2019-02-17T08:25:29.124Z,32.1
2019-02-17T08:26:14.016Z,31.3
2019-02-17T08:27:06.756Z,30.8
2019-02-17T08:27:54.986Z,30.2
2019-02-17T08:28:48.000Z,29.8
2019-02-17T08:29:34.541Z,29.4
2019-02-17T08:30:25.157Z,29.3
2019-02-17T08:31:14.799Z,28.9
2019-02-17T08:32:05.041Z,28.8
2019-02-17T08:32:55.923Z,28.6
2019-02-17T08:33:44.528Z,28.4
2019-02-17T08:34:35.214Z,28.2
2019-02-17T08:35:25.228Z,28
2019-02-17T08:36:15.545Z,27.9
2019-02-17T08:37:05.878Z,27.8
2019-02-17T08:37:55.263Z,27.6
2019-02-17T08:38:46.072Z,27.5
2019-02-17T08:39:35.567Z,27.4
2019-02-17T08:40:25.565Z,27.3
2019-02-17T08:41:15.686Z,27.2
2019-02-17T08:42:04.445Z,27.1
2019-02-17T08:42:56.340Z,27
2019-02-17T08:43:45.773Z,26.9
2019-02-17T08:44:35.560Z,26.9
2019-02-17T08:45:26.448Z,26.8
2019-02-17T08:46:16.293Z,26.8
2019-02-17T08:47:06.093Z,26.7
2019-02-17T08:47:55.558Z,26.7
2019-02-17T08:48:46.418Z,26.6
2019-02-17T08:49:36.175Z,26.6
2019-02-17T08:50:27.679Z,26.5
2019-02-17T08:51:15.262Z,26.4
2019-02-17T08:52:08.110Z,26.4
2019-02-17T08:52:56.067Z,26.4
2019-02-17T08:53:46.558Z,26.4
2019-02-17T08:54:36.147Z,26.3
2019-02-17T08:55:25.929Z,26.2
2019-02-17T08:56:19.249Z,26.2
2019-02-17T08:57:06.722Z,26.1
2019-02-17T08:57:57.343Z,26.1
2019-02-17T08:58:45.565Z,26.1
2019-02-17T08:59:36.642Z,26
2019-02-17T09:00:26.724Z,26
2019-02-17T09:01:16.382Z,25.9
2019-02-17T09:02:13.158Z,25.9
2019-02-17T09:02:56.199Z,25.8
2019-02-17T09:03:46.720Z,25.8
2019-02-17T09:04:37.006Z,25.8
2019-02-17T09:05:27.602Z,25.8
2019-02-17T09:06:16.311Z,25.8
2019-02-17T09:07:09.794Z,25.8
2019-02-17T09:07:57.497Z,25.8
2019-02-17T09:08:47.011Z,25.8
2019-02-17T09:09:37.344Z,25.9
2019-02-17T09:10:26.926Z,25.9
2019-02-17T09:11:16.922Z,25.9
2019-02-17T09:12:08.052Z,25.9
2019-02-17T09:12:57.855Z,25.9
2019-02-17T09:13:46.989Z,25.9
2019-02-17T09:14:37.261Z,25.9
2019-02-17T09:15:28.718Z,25.9
2019-02-17T09:16:17.296Z,25.9
2019-02-17T09:17:08.411Z,25.9
2019-02-17T09:17:57.983Z,25.8
2019-02-17T09:18:48.546Z,25.8
2019-02-17T09:19:38.025Z,25.8
2019-02-17T09:20:29.025Z,25.8
2019-02-17T09:21:18.723Z,25.8
2019-02-17T09:22:08.570Z,25.8
2019-02-17T09:22:58.291Z,25.8
2019-02-17T09:23:48.073Z,25.8
2019-02-17T09:24:38.928Z,25.8
2019-02-17T09:25:28.193Z,25.7
2019-02-17T09:26:17.383Z,25.7
2019-02-17T09:27:08.575Z,25.7
2019-02-17T09:27:58.402Z,25.7
2019-02-17T09:28:48.826Z,25.6
2019-02-17T09:29:39.290Z,25.6
2019-02-17T09:30:28.818Z,25.6
2019-02-17T09:31:18.804Z,25.6
2019-02-17T09:32:20.029Z,25.6
2019-02-17T09:32:58.432Z,25.5
2019-02-17T09:33:49.240Z,25.5
2019-02-17T09:34:39.672Z,25.5
2019-02-17T09:35:28.173Z,25.4
2019-02-17T09:36:18.962Z,25.4
2019-02-17T09:37:08.187Z,25.4
2019-02-17T09:37:59.582Z,25.4
2019-02-17T09:38:48.836Z,25.4
2019-02-17T09:39:40.149Z,25.4
2019-02-17T09:40:29.179Z,25.4
2019-02-17T09:41:19.529Z,25.4
2019-02-17T09:42:09.571Z,25.3
2019-02-17T09:43:00.652Z,25.3
2019-02-17T09:43:53.416Z,26.3
2019-02-17T09:44:39.949Z,24.4
2019-02-17T09:45:28.761Z,23
2019-02-17T09:46:19.504Z,22.2
2019-02-17T09:47:09.495Z,21.7
2019-02-17T09:48:00.321Z,21.4
2019-02-17T09:48:51.111Z,21.2
2019-02-17T09:49:40.613Z,21.1
2019-02-17T09:50:30.197Z,21
2019-02-17T09:51:19.649Z,21
2019-02-17T09:52:11.098Z,21
2019-02-17T09:52:58.965Z,21
2019-02-17T09:53:50.818Z,21.1
2019-02-17T09:56:20.541Z,21.2
2019-02-17T09:57:10.896Z,21.3
2019-02-17T09:58:00.908Z,21.3
2019-02-17T09:58:52.223Z,21.3
2019-02-17T09:59:40.687Z,21.4
2019-02-17T10:00:30.308Z,21.4
2019-02-17T10:01:21.725Z,21.5
2019-02-17T10:02:10.425Z,21.5
2019-02-17T10:03:00.753Z,21.6
2019-02-17T10:03:50.278Z,21.6
2019-02-17T10:04:40.625Z,21.6
2019-02-17T10:07:22.560Z,21.8
2019-02-17T10:07:58.621Z,21.8
2019-02-17T10:08:49.480Z,21.8
2019-02-17T10:09:38.683Z,21.8
2019-02-17T10:10:29.701Z,21.8
2019-02-17T10:11:19.359Z,21.9
2019-02-17T10:12:09.299Z,21.9
2019-02-17T10:13:01.571Z,21.9
2019-02-17T10:13:49.814Z,21.9
2019-02-17T10:14:39.562Z,21.9
2019-02-17T10:15:29.044Z,21.9
2019-02-17T10:16:19.652Z,21.9
2019-02-17T10:17:09.389Z,21.9
2019-02-17T10:17:59.277Z,21.9
2019-02-17T10:18:49.907Z,21.9
2019-02-17T10:19:39.575Z,21.9
2019-02-17T10:20:30.914Z,21.9
2019-02-17T10:21:19.699Z,21.9
2019-02-17T10:22:09.736Z,21.9
2019-02-17T10:23:00.134Z,21.9
2019-02-17T10:24:03.989Z,21.9
2019-02-17T10:24:39.669Z,21.9
2019-02-17T10:25:30.589Z,21.9
2019-02-17T10:26:19.877Z,21.9
2019-02-17T10:27:09.368Z,21.9
2019-02-17T10:27:59.346Z,21.9
2019-02-17T10:28:49.843Z,21.9
2019-02-17T10:29:40.844Z,21.9
2019-02-17T10:30:31.086Z,21.9
2019-02-17T10:31:20.203Z,21.9
2019-02-17T10:32:09.759Z,21.9
2019-02-17T10:33:00.258Z,21.9
2019-02-17T10:33:51.546Z,21.9
2019-02-17T10:34:40.453Z,21.9
2019-02-17T10:35:30.591Z,21.9
2019-02-17T10:36:20.467Z,21.9
2019-02-17T10:37:10.820Z,21.9
2019-02-17T10:38:01.413Z,21.9
2019-02-17T10:38:51.064Z,21.9
2019-02-17T10:39:41.202Z,21.9
2019-02-17T10:40:31.078Z,21.9
2019-02-17T10:41:21.371Z,21.8
2019-02-17T10:42:11.123Z,21.8
2019-02-17T10:43:00.943Z,21.8
2019-02-17T10:43:50.740Z,21.8
2019-02-17T10:44:41.880Z,21.8
2019-02-17T10:45:31.713Z,21.8
2019-02-17T10:46:21.245Z,21.8
2019-02-17T10:47:11.805Z,21.8
2019-02-17T10:48:02.430Z,21.8
2019-02-17T10:48:52.535Z,21.8
2019-02-17T10:49:41.377Z,21.8
2019-02-17T10:50:30.888Z,21.8
2019-02-17T10:51:21.539Z,21.8
2019-02-17T10:52:11.985Z,21.8
2019-02-17T10:53:02.442Z,21.8
2019-02-17T10:53:50.997Z,21.8
2019-02-17T10:54:42.307Z,21.8
2019-02-17T10:55:32.907Z,21.8
2019-02-17T10:56:22.405Z,21.8
2019-02-17T10:57:12.197Z,21.7
2019-02-17T10:58:02.565Z,21.8
2019-02-17T10:58:52.029Z,21.7
2019-02-17T10:59:42.816Z,21.8
2019-02-17T11:00:32.992Z,21.7
2019-02-17T11:01:21.849Z,21.7
2019-02-17T11:02:12.834Z,21.7
2019-02-17T11:03:17.804Z,21.6
2019-02-17T11:03:53.235Z,21.7
2019-02-17T11:04:42.672Z,21.6
2019-02-17T11:05:33.812Z,21.6
2019-02-17T11:06:22.868Z,21.6
2019-02-17T11:07:12.129Z,21.6
2019-02-17T11:08:03.744Z,21.6
2019-02-17T11:08:53.861Z,21.6
2019-02-17T11:09:43.671Z,21.6
2019-02-17T11:10:32.279Z,21.6
2019-02-17T11:11:22.933Z,21.6
2019-02-17T11:12:14.258Z,21.6
2019-02-17T11:13:03.047Z,21.6
2019-02-17T11:13:53.860Z,21.6
2019-02-17T11:14:42.743Z,21.5
2019-02-17T11:15:32.861Z,21.5
2019-02-17T11:16:24.308Z,21.5
2019-02-17T11:17:14.663Z,21.5
2019-02-17T11:18:03.912Z,21.4
2019-02-17T11:18:56.715Z,21.4
2019-02-17T11:19:44.488Z,21.4